Capitol Logistics 974


EHAM
Schiphol International Airport
Amsterdam, NL
KSEA
Seattle-Tacoma International Airport
Seattle, US

Route Details

Aircraft Information
Primary: Boeing 747-400BCF
Backup: Boeing 777-200LRF
Route Data
Distance: 4238nm
Sched. Duration: 10h 05m
Avg. Duration: 9h 46m (-59m)
Times Flown: 2
Recm'd Route: Not Available
Planned Altitude: 32,000ft
Origin Wx: EHAM 311155Z 05011KT 010V100 CAVOK 08/M02 Q1032 NOSIG
Dest. Wx: KSEA 311153Z 20007KT 10SM BKN011 BKN018 04/03 A2993 RMK AO2 SLP143 60006 70037 T00440028 10056 20044 53004
Notes: SEASONAL FLIGHT | PERISHABLE CARGO

Financial History
Total Freight: 368,513lbs
Average Load: 184,257lbs/flt
Fuel Used: 430,111lbs
Avg. Fuel Used: 215,056lbs/flt
Fuel Expense: $344,089
Avg. Fuel Expense: $172,044
Avg. Fuel Cost: $0.80/lbs
Total Gross Income: $2,023,136
Pilot Pay: $378
Total Expenses: $218,603
Total Revenue: $1,455,870
Average Revenue: $1,011,568.19